sensor_id;sensor_type;location;lat;lon;timestamp;temperature;humidity
27781;DHT22;15167;1.318;103.762;2022-09-13T00:01:06;23.60;44.30
27781;DHT22;15167;1.318;103.762;2022-09-13T00:03:32;23.40;45.40
27781;DHT22;15167;1.318;103.762;2022-09-13T00:06:06;23.30;20.40
27781;DHT22;15167;1.318;103.762;2022-09-13T00:08:32;23.40;29.80
27781;DHT22;15167;1.318;103.762;2022-09-13T00:10:58;23.40;16.90
27781;DHT22;15167;1.318;103.762;2022-09-13T00:13:24;23.40;1.00
27781;DHT22;15167;1.318;103.762;2022-09-13T00:15:51;23.50;64.70
27781;DHT22;15167;1.318;103.762;2022-09-13T00:18:17;23.60;99.90
27781;DHT22;15167;1.318;103.762;2022-09-13T00:20:43;23.60;99.90
27781;DHT22;15167;1.318;103.762;2022-09-13T00:23:10;23.60;99.90
27781;DHT22;15167;1.318;103.762;2022-09-13T00:25:36;23.70;99.90
27781;DHT22;15167;1.318;103.762;2022-09-13T00:28:03;23.80;56.60
27781;DHT22;15167;1.318;103.762;2022-09-13T00:30:29;23.90;39.10
27781;DHT22;15167;1.318;103.762;2022-09-13T00:32:55;24.20;22.80
27781;DHT22;15167;1.318;103.762;2022-09-13T00:35:22;24.30;1.00
27781;DHT22;15167;1.318;103.762;2022-09-13T00:37:48;24.50;1.00
27781;DHT22;15167;1.318;103.762;2022-09-13T00:40:14;24.60;1.00
27781;DHT22;15167;1.318;103.762;2022-09-13T00:42:40;24.80;1.00
27781;DHT22;15167;1.318;103.762;2022-09-13T00:53:17;25.00;99.90
27781;DHT22;15167;1.318;103.762;2022-09-13T00:58:17;25.10;99.90
27781;DHT22;15167;1.318;103.762;2022-09-13T01:00:46;25.20;76.40
27781;DHT22;15167;1.318;103.762;2022-09-13T01:03:13;25.30;32.60
27781;DHT22;15167;1.318;103.762;2022-09-13T01:05:45;25.30;1.00
27781;DHT22;15167;1.318;103.762;2022-09-13T01:08:13;25.40;1.00
27781;DHT22;15167;1.318;103.762;2022-09-13T01:10:48;25.50;1.00
27781;DHT22;15167;1.318;103.762;2022-09-13T01:13:19;25.80;99.90
27781;DHT22;15167;1.318;103.762;2022-09-13T01:15:46;25.90;1.00
27781;DHT22;15167;1.318;103.762;2022-09-13T01:18:12;26.00;99.90
27781;DHT22;15167;1.318;103.762;2022-09-13T01:23:45;26.20;1.00
27781;DHT22;15167;1.318;103.762;2022-09-13T01:31:41;26.40;1.00
27781;DHT22;15167;1.318;103.762;2022-09-13T01:39:02;26.60;1.00
27781;DHT22;15167;1.318;103.762;2022-09-13T01:44:18;26.70;1.00
27781;DHT22;15167;1.318;103.762;2022-09-13T01:52:04;26.70;1.00
27781;DHT22;15167;1.318;103.762;2022-09-13T01:54:37;26.80;1.00
27781;DHT22;15167;1.318;103.762;2022-09-13T01:57:15;26.80;1.00
27781;DHT22;15167;1.318;103.762;2022-09-13T02:04:49;27.10;1.00
27781;DHT22;15167;1.318;103.762;2022-09-13T02:07:20;27.00;1.00
27781;DHT22;15167;1.318;103.762;2022-09-13T02:09:51;27.00;11.90
27781;DHT22;15167;1.318;103.762;2022-09-13T02:12:24;27.10;37.00
27781;DHT22;15167;1.318;103.762;2022-09-13T02:14:59;27.10;41.40
27781;DHT22;15167;1.318;103.762;2022-09-13T02:17:28;27.30;74.30
27781;DHT22;15167;1.318;103.762;2022-09-13T02:20:02;27.50;58.40
27781;DHT22;15167;1.318;103.762;2022-09-13T02:22:32;27.80;21.40
27781;DHT22;15167;1.318;103.762;2022-09-13T02:25:04;27.80;1.00
27781;DHT22;15167;1.318;103.762;2022-09-13T02:27:32;28.00;1.00
27781;DHT22;15167;1.318;103.762;2022-09-13T02:30:04;27.90;11.80
27781;DHT22;15167;1.318;103.762;2022-09-13T02:32:35;27.90;27.10
27781;DHT22;15167;1.318;103.762;2022-09-13T02:35:04;27.90;35.00
27781;DHT22;15167;1.318;103.762;2022-09-13T02:37:31;27.90;57.70
27781;DHT22;15167;1.318;103.762;2022-09-13T02:40:04;28.00;51.60
27781;DHT22;15167;1.318;103.762;2022-09-13T02:42:43;28.10;50.70
27781;DHT22;15167;1.318;103.762;2022-09-13T02:45:12;28.30;32.40
27781;DHT22;15167;1.318;103.762;2022-09-13T02:55:07;28.40;1.00
27781;DHT22;15167;1.318;103.762;2022-09-13T02:57:37;28.60;1.00
27781;DHT22;15167;1.318;103.762;2022-09-13T03:00:04;28.40;1.00
27781;DHT22;15167;1.318;103.762;2022-09-13T03:02:31;28.50;1.00
27781;DHT22;15167;1.318;103.762;2022-09-13T03:04:58;28.50;1.00
27781;DHT22;15167;1.318;103.762;2022-09-13T03:07:25;28.60;1.00
27781;DHT22;15167;1.318;103.762;2022-09-13T03:09:52;28.60;99.90
27781;DHT22;15167;1.318;103.762;2022-09-13T03:14:51;28.80;1.00
27781;DHT22;15167;1.318;103.762;2022-09-13T03:23:11;29.00;99.90
27781;DHT22;15167;1.318;103.762;2022-09-13T03:30:31;29.00;99.90
27781;DHT22;15167;1.318;103.762;2022-09-13T03:33:03;29.10;99.90
27781;DHT22;15167;1.318;103.762;2022-09-13T03:40:40;29.50;99.90
27781;DHT22;15167;1.318;103.762;2022-09-13T03:43:19;29.60;99.90
27781;DHT22;15167;1.318;103.762;2022-09-13T03:45:51;29.70;99.90
27781;DHT22;15167;1.318;103.762;2022-09-13T03:48:18;29.80;99.90
27781;DHT22;15167;1.318;103.762;2022-09-13T03:50:45;29.80;99.90
27781;DHT22;15167;1.318;103.762;2022-09-13T03:53:13;29.90;99.90
27781;DHT22;15167;1.318;103.762;2022-09-13T03:55:41;30.00;99.90
27781;DHT22;15167;1.318;103.762;2022-09-13T03:58:14;30.10;99.90
27781;DHT22;15167;1.318;103.762;2022-09-13T04:00:41;30.20;99.90
27781;DHT22;15167;1.318;103.762;2022-09-13T04:03:09;30.20;99.90
27781;DHT22;15167;1.318;103.762;2022-09-13T04:05:36;30.00;99.90
27781;DHT22;15167;1.318;103.762;2022-09-13T04:08:02;29.80;1.00
27781;DHT22;15167;1.318;103.762;2022-09-13T04:10:33;29.60;1.00
27781;DHT22;15167;1.318;103.762;2022-09-13T04:12:59;29.50;1.00
27781;DHT22;15167;1.318;103.762;2022-09-13T04:15:26;29.20;1.00
27781;DHT22;15167;1.318;103.762;2022-09-13T04:17:52;29.00;1.00
27781;DHT22;15167;1.318;103.762;2022-09-13T04:20:19;28.80;3.20
27781;DHT22;15167;1.318;103.762;2022-09-13T04:22:49;28.70;15.00
27781;DHT22;15167;1.318;103.762;2022-09-13T04:25:16;28.60;42.70
27781;DHT22;15167;1.318;103.762;2022-09-13T04:27:42;28.50;76.00
27781;DHT22;15167;1.318;103.762;2022-09-13T04:30:08;28.50;90.20
27781;DHT22;15167;1.318;103.762;2022-09-13T04:32:34;28.50;99.90
27781;DHT22;15167;1.318;103.762;2022-09-13T04:35:00;28.60;99.90
27781;DHT22;15167;1.318;103.762;2022-09-13T04:37:26;28.60;99.50
27781;DHT22;15167;1.318;103.762;2022-09-13T04:39:53;28.70;99.90
27781;DHT22;15167;1.318;103.762;2022-09-13T04:42:19;28.70;99.90
27781;DHT22;15167;1.318;103.762;2022-09-13T04:44:45;28.70;99.90
27781;DHT22;15167;1.318;103.762;2022-09-13T04:47:14;28.80;99.90
27781;DHT22;15167;1.318;103.762;2022-09-13T04:49:40;28.90;99.90
27781;DHT22;15167;1.318;103.762;2022-09-13T04:52:06;28.90;99.90
27781;DHT22;15167;1.318;103.762;2022-09-13T04:54:33;29.00;99.90
27781;DHT22;15167;1.318;103.762;2022-09-13T04:56:59;29.10;90.00
27781;DHT22;15167;1.318;103.762;2022-09-13T04:59:25;29.20;68.30
27781;DHT22;15167;1.318;103.762;2022-09-13T05:01:52;29.30;36.80
27781;DHT22;15167;1.318;103.762;2022-09-13T05:04:18;29.40;3.50
27781;DHT22;15167;1.318;103.762;2022-09-13T05:06:44;29.50;1.00
27781;DHT22;15167;1.318;103.762;2022-09-13T05:09:13;29.60;1.00
27781;DHT22;15167;1.318;103.762;2022-09-13T05:11:39;29.60;1.00
27781;DHT22;15167;1.318;103.762;2022-09-13T05:14:08;29.60;1.00
27781;DHT22;15167;1.318;103.762;2022-09-13T05:16:34;29.70;1.00
27781;DHT22;15167;1.318;103.762;2022-09-13T05:19:01;29.60;1.00
27781;DHT22;15167;1.318;103.762;2022-09-13T05:21:27;29.70;99.90
27781;DHT22;15167;1.318;103.762;2022-09-13T05:23:54;29.80;99.90
27781;DHT22;15167;1.318;103.762;2022-09-13T05:26:22;30.00;99.90
27781;DHT22;15167;1.318;103.762;2022-09-13T05:28:48;30.00;99.90
27781;DHT22;15167;1.318;103.762;2022-09-13T05:31:18;30.10;99.90
27781;DHT22;15167;1.318;103.762;2022-09-13T05:33:45;30.10;99.90
27781;DHT22;15167;1.318;103.762;2022-09-13T05:36:12;30.00;99.90
27781;DHT22;15167;1.318;103.762;2022-09-13T05:38:38;30.00;99.90
27781;DHT22;15167;1.318;103.762;2022-09-13T05:41:04;30.00;99.90
27781;DHT22;15167;1.318;103.762;2022-09-13T05:43:32;30.00;99.90
27781;DHT22;15167;1.318;103.762;2022-09-13T05:46:05;29.90;99.90
27781;DHT22;15167;1.318;103.762;2022-09-13T05:48:31;29.90;99.90
27781;DHT22;15167;1.318;103.762;2022-09-13T05:53:31;29.80;99.90
27781;DHT22;15167;1.318;103.762;2022-09-13T05:55:57;29.80;99.90
27781;DHT22;15167;1.318;103.762;2022-09-13T05:58:23;29.70;99.90
27781;DHT22;15167;1.318;103.762;2022-09-13T06:00:53;29.70;99.90
27781;DHT22;15167;1.318;103.762;2022-09-13T06:03:20;29.60;99.90
27781;DHT22;15167;1.318;103.762;2022-09-13T06:05:46;29.60;99.90
27781;DHT22;15167;1.318;103.762;2022-09-13T06:08:13;29.60;99.90
27781;DHT22;15167;1.318;103.762;2022-09-13T06:10:39;29.50;99.90
27781;DHT22;15167;1.318;103.762;2022-09-13T06:13:05;29.50;99.90
27781;DHT22;15167;1.318;103.762;2022-09-13T06:15:31;29.50;99.90
27781;DHT22;15167;1.318;103.762;2022-09-13T06:17:57;29.50;99.90
27781;DHT22;15167;1.318;103.762;2022-09-13T06:20:23;29.50;99.90
27781;DHT22;15167;1.318;103.762;2022-09-13T06:22:49;29.60;99.90
27781;DHT22;15167;1.318;103.762;2022-09-13T06:25:16;29.50;99.90
27781;DHT22;15167;1.318;103.762;2022-09-13T06:27:42;29.60;99.90
27781;DHT22;15167;1.318;103.762;2022-09-13T06:30:08;29.70;55.70
27781;DHT22;15167;1.318;103.762;2022-09-13T06:32:37;29.90;99.90
27781;DHT22;15167;1.318;103.762;2022-09-13T06:35:04;29.90;99.90
27781;DHT22;15167;1.318;103.762;2022-09-13T06:37:30;30.00;99.90
27781;DHT22;15167;1.318;103.762;2022-09-13T06:39:56;30.00;99.90
27781;DHT22;15167;1.318;103.762;2022-09-13T06:42:23;30.10;81.40
27781;DHT22;15167;1.318;103.762;2022-09-13T06:44:49;30.10;99.90
27781;DHT22;15167;1.318;103.762;2022-09-13T06:47:15;30.10;99.90
27781;DHT22;15167;1.318;103.762;2022-09-13T06:49:41;30.10;13.60
27781;DHT22;15167;1.318;103.762;2022-09-13T06:52:07;30.10;99.90
27781;DHT22;15167;1.318;103.762;2022-09-13T06:54:35;30.10;99.90
27781;DHT22;15167;1.318;103.762;2022-09-13T06:57:01;30.10;99.90
27781;DHT22;15167;1.318;103.762;2022-09-13T06:59:28;30.10;99.90
27781;DHT22;15167;1.318;103.762;2022-09-13T07:01:54;30.10;1.00
27781;DHT22;15167;1.318;103.762;2022-09-13T07:04:20;30.00;99.90
27781;DHT22;15167;1.318;103.762;2022-09-13T07:06:47;30.00;99.90
27781;DHT22;15167;1.318;103.762;2022-09-13T07:09:14;30.00;99.90
27781;DHT22;15167;1.318;103.762;2022-09-13T07:11:42;30.10;99.90
27781;DHT22;15167;1.318;103.762;2022-09-13T07:14:12;30.10;99.90
27781;DHT22;15167;1.318;103.762;2022-09-13T07:16:39;30.10;99.90
27781;DHT22;15167;1.318;103.762;2022-09-13T07:19:06;30.10;99.90
27781;DHT22;15167;1.318;103.762;2022-09-13T07:21:33;30.00;99.90
27781;DHT22;15167;1.318;103.762;2022-09-13T07:24:00;30.00;99.90
27781;DHT22;15167;1.318;103.762;2022-09-13T07:26:26;30.00;99.90
27781;DHT22;15167;1.318;103.762;2022-09-13T07:28:53;30.00;99.90
27781;DHT22;15167;1.318;103.762;2022-09-13T07:31:21;30.00;99.90
27781;DHT22;15167;1.318;103.762;2022-09-13T07:33:51;30.00;99.90
27781;DHT22;15167;1.318;103.762;2022-09-13T07:36:18;30.00;99.90
27781;DHT22;15167;1.318;103.762;2022-09-13T07:38:44;30.00;99.90
27781;DHT22;15167;1.318;103.762;2022-09-13T07:41:13;30.00;99.90
27781;DHT22;15167;1.318;103.762;2022-09-13T07:43:40;29.90;99.90
27781;DHT22;15167;1.318;103.762;2022-09-13T07:46:08;29.80;1.00
27781;DHT22;15167;1.318;103.762;2022-09-13T07:48:35;29.80;1.00
27781;DHT22;15167;1.318;103.762;2022-09-13T07:51:03;29.80;1.00
27781;DHT22;15167;1.318;103.762;2022-09-13T07:53:30;29.70;1.00
27781;DHT22;15167;1.318;103.762;2022-09-13T07:56:30;29.70;1.00
27781;DHT22;15167;1.318;103.762;2022-09-13T07:58:49;29.70;1.00
27781;DHT22;15167;1.318;103.762;2022-09-13T08:01:20;29.60;1.00
27781;DHT22;15167;1.318;103.762;2022-09-13T08:03:53;29.60;1.00
27781;DHT22;15167;1.318;103.762;2022-09-13T08:06:20;29.50;1.00
27781;DHT22;15167;1.318;103.762;2022-09-13T08:08:46;29.50;1.00
27781;DHT22;15167;1.318;103.762;2022-09-13T08:11:15;29.40;1.00
27781;DHT22;15167;1.318;103.762;2022-09-13T08:13:41;29.30;1.00
27781;DHT22;15167;1.318;103.762;2022-09-13T08:16:07;29.30;1.00
27781;DHT22;15167;1.318;103.762;2022-09-13T08:18:33;29.30;1.00
27781;DHT22;15167;1.318;103.762;2022-09-13T08:21:00;29.30;1.00
27781;DHT22;15167;1.318;103.762;2022-09-13T08:23:26;29.30;1.00
27781;DHT22;15167;1.318;103.762;2022-09-13T08:25:53;29.20;1.00
27781;DHT22;15167;1.318;103.762;2022-09-13T08:28:19;29.30;1.00
27781;DHT22;15167;1.318;103.762;2022-09-13T08:30:46;29.20;1.00
27781;DHT22;15167;1.318;103.762;2022-09-13T08:33:13;29.20;1.00
27781;DHT22;15167;1.318;103.762;2022-09-13T08:35:39;29.20;1.00
27781;DHT22;15167;1.318;103.762;2022-09-13T08:38:06;29.20;1.00
27781;DHT22;15167;1.318;103.762;2022-09-13T08:40:33;29.20;1.00
27781;DHT22;15167;1.318;103.762;2022-09-13T08:45:30;29.20;1.00
27781;DHT22;15167;1.318;103.762;2022-09-13T08:47:57;29.20;1.00
27781;DHT22;15167;1.318;103.762;2022-09-13T08:50:26;29.10;1.00
27781;DHT22;15167;1.318;103.762;2022-09-13T08:53:05;29.10;1.00
27781;DHT22;15167;1.318;103.762;2022-09-13T08:55:48;29.10;1.00
27781;DHT22;15167;1.318;103.762;2022-09-13T08:58:31;29.10;1.00
27781;DHT22;15167;1.318;103.762;2022-09-13T09:01:02;29.10;1.00
27781;DHT22;15167;1.318;103.762;2022-09-13T09:03:41;29.10;1.00
27781;DHT22;15167;1.318;103.762;2022-09-13T09:06:12;29.10;1.00
27781;DHT22;15167;1.318;103.762;2022-09-13T09:08:43;29.10;1.00
27781;DHT22;15167;1.318;103.762;2022-09-13T09:11:24;29.00;1.00
27781;DHT22;15167;1.318;103.762;2022-09-13T09:18:55;29.00;1.00
27781;DHT22;15167;1.318;103.762;2022-09-13T09:21:24;29.00;1.00
27781;DHT22;15167;1.318;103.762;2022-09-13T09:24:00;28.80;4.30
27781;DHT22;15167;1.318;103.762;2022-09-13T09:26:31;28.80;5.90
27781;DHT22;15167;1.318;103.762;2022-09-13T09:39:45;28.70;55.00
27781;DHT22;15167;1.318;103.762;2022-09-13T09:42:13;28.60;73.10
27781;DHT22;15167;1.318;103.762;2022-09-13T09:44:42;28.60;91.40
27781;DHT22;15167;1.318;103.762;2022-09-13T09:47:15;28.50;94.00
27781;DHT22;15167;1.318;103.762;2022-09-13T09:49:58;28.50;93.50
27781;DHT22;15167;1.318;103.762;2022-09-13T09:52:49;28.40;76.50
27781;DHT22;15167;1.318;103.762;2022-09-13T10:00:15;28.30;73.70
27781;DHT22;15167;1.318;103.762;2022-09-13T10:02:44;28.20;78.00
27781;DHT22;15167;1.318;103.762;2022-09-13T10:05:12;28.20;93.60
27781;DHT22;15167;1.318;103.762;2022-09-13T10:07:39;28.20;99.90
27781;DHT22;15167;1.318;103.762;2022-09-13T10:10:25;28.20;99.90
27781;DHT22;15167;1.318;103.762;2022-09-13T10:12:52;28.20;90.30
27781;DHT22;15167;1.318;103.762;2022-09-13T10:15:22;28.10;90.20
27781;DHT22;15167;1.318;103.762;2022-09-13T10:18:08;28.10;92.40
27781;DHT22;15167;1.318;103.762;2022-09-13T10:20:38;28.10;86.60
27781;DHT22;15167;1.318;103.762;2022-09-13T10:23:16;28.10;73.40
27781;DHT22;15167;1.318;103.762;2022-09-13T10:28:28;28.10;64.90
27781;DHT22;15167;1.318;103.762;2022-09-13T10:30:56;28.00;67.70
27781;DHT22;15167;1.318;103.762;2022-09-13T10:33:25;28.00;69.50
27781;DHT22;15167;1.318;103.762;2022-09-13T10:35:53;28.00;62.50
27781;DHT22;15167;1.318;103.762;2022-09-13T10:38:28;28.00;52.80
27781;DHT22;15167;1.318;103.762;2022-09-13T10:40:55;28.00;50.80
27781;DHT22;15167;1.318;103.762;2022-09-13T10:43:21;28.00;40.60
27781;DHT22;15167;1.318;103.762;2022-09-13T10:45:49;28.00;34.20
27781;DHT22;15167;1.318;103.762;2022-09-13T10:48:16;28.00;13.90
27781;DHT22;15167;1.318;103.762;2022-09-13T10:51:04;27.90;1.00
27781;DHT22;15167;1.318;103.762;2022-09-13T10:53:36;27.90;1.00
27781;DHT22;15167;1.318;103.762;2022-09-13T10:56:02;27.90;1.00
27781;DHT22;15167;1.318;103.762;2022-09-13T10:58:29;27.90;1.00
27781;DHT22;15167;1.318;103.762;2022-09-13T11:11:22;27.70;1.00
27781;DHT22;15167;1.318;103.762;2022-09-13T11:13:55;27.70;22.70
27781;DHT22;15167;1.318;103.762;2022-09-13T11:24:09;27.60;88.70
27781;DHT22;15167;1.318;103.762;2022-09-13T11:41:50;27.50;99.90
27781;DHT22;15167;1.318;103.762;2022-09-13T11:52:07;27.50;99.90
27781;DHT22;15167;1.318;103.762;2022-09-13T11:57:10;27.40;99.90
27781;DHT22;15167;1.318;103.762;2022-09-13T12:02:39;27.40;99.90
27781;DHT22;15167;1.318;103.762;2022-09-13T12:05:08;27.40;99.90
27781;DHT22;15167;1.318;103.762;2022-09-13T12:07:37;27.40;99.90
27781;DHT22;15167;1.318;103.762;2022-09-13T12:12:49;27.40;99.90
27781;DHT22;15167;1.318;103.762;2022-09-13T12:15:20;27.40;99.90
27781;DHT22;15167;1.318;103.762;2022-09-13T12:17:49;27.40;99.90
27781;DHT22;15167;1.318;103.762;2022-09-13T12:20:39;27.50;99.90
27781;DHT22;15167;1.318;103.762;2022-09-13T12:23:06;27.50;99.90
27781;DHT22;15167;1.318;103.762;2022-09-13T12:25:40;27.50;99.90
27781;DHT22;15167;1.318;103.762;2022-09-13T12:28:27;27.50;99.90
27781;DHT22;15167;1.318;103.762;2022-09-13T12:30:56;27.50;99.90
27781;DHT22;15167;1.318;103.762;2022-09-13T12:33:22;27.40;99.90
27781;DHT22;15167;1.318;103.762;2022-09-13T12:35:52;27.40;99.90
27781;DHT22;15167;1.318;103.762;2022-09-13T12:38:26;27.40;99.90
27781;DHT22;15167;1.318;103.762;2022-09-13T13:03:40;27.30;99.90
27781;DHT22;15167;1.318;103.762;2022-09-13T13:06:52;27.30;99.90
27781;DHT22;15167;1.318;103.762;2022-09-13T13:08:59;27.30;99.90
27781;DHT22;15167;1.318;103.762;2022-09-13T13:11:26;27.30;99.90
27781;DHT22;15167;1.318;103.762;2022-09-13T13:14:01;27.20;99.90
27781;DHT22;15167;1.318;103.762;2022-09-13T13:16:34;27.20;99.90
27781;DHT22;15167;1.318;103.762;2022-09-13T13:19:03;27.10;99.90
27781;DHT22;15167;1.318;103.762;2022-09-13T13:21:31;27.10;99.90
27781;DHT22;15167;1.318;103.762;2022-09-13T13:29:14;27.20;99.90
27781;DHT22;15167;1.318;103.762;2022-09-13T13:31:41;27.20;99.90
27781;DHT22;15167;1.318;103.762;2022-09-13T13:46:53;27.10;99.90
27781;DHT22;15167;1.318;103.762;2022-09-13T13:54:56;27.10;99.90
27781;DHT22;15167;1.318;103.762;2022-09-13T14:00:12;27.10;99.90
27781;DHT22;15167;1.318;103.762;2022-09-13T14:02:43;27.10;99.90
27781;DHT22;15167;1.318;103.762;2022-09-13T14:20:59;27.00;99.90
27781;DHT22;15167;1.318;103.762;2022-09-13T14:23:27;27.00;99.90
27781;DHT22;15167;1.318;103.762;2022-09-13T14:25:56;27.00;99.90
27781;DHT22;15167;1.318;103.762;2022-09-13T14:28:23;27.00;99.90
27781;DHT22;15167;1.318;103.762;2022-09-13T14:30:53;27.00;99.90
27781;DHT22;15167;1.318;103.762;2022-09-13T14:33:31;27.00;99.90
27781;DHT22;15167;1.318;103.762;2022-09-13T14:36:06;27.00;99.90
27781;DHT22;15167;1.318;103.762;2022-09-13T14:38:35;26.90;99.90
27781;DHT22;15167;1.318;103.762;2022-09-13T14:43:28;26.90;99.90
27781;DHT22;15167;1.318;103.762;2022-09-13T14:48:24;26.90;99.90
27781;DHT22;15167;1.318;103.762;2022-09-13T14:51:03;26.90;99.90
27781;DHT22;15167;1.318;103.762;2022-09-13T14:53:33;26.90;99.90
27781;DHT22;15167;1.318;103.762;2022-09-13T14:56:25;26.90;99.90
27781;DHT22;15167;1.318;103.762;2022-09-13T14:58:50;26.90;99.90
27781;DHT22;15167;1.318;103.762;2022-09-13T15:01:19;26.90;99.90
27781;DHT22;15167;1.318;103.762;2022-09-13T15:03:47;26.80;99.90
27781;DHT22;15167;1.318;103.762;2022-09-13T15:06:33;26.80;99.90
27781;DHT22;15167;1.318;103.762;2022-09-13T15:11:37;26.80;99.90
27781;DHT22;15167;1.318;103.762;2022-09-13T15:16:52;26.80;99.90
27781;DHT22;15167;1.318;103.762;2022-09-13T15:21:48;26.90;99.90
27781;DHT22;15167;1.318;103.762;2022-09-13T15:24:21;26.80;99.90
27781;DHT22;15167;1.318;103.762;2022-09-13T15:26:59;26.80;99.90
27781;DHT22;15167;1.318;103.762;2022-09-13T15:29:26;26.80;99.90
27781;DHT22;15167;1.318;103.762;2022-09-13T15:31:57;26.80;99.90
27781;DHT22;15167;1.318;103.762;2022-09-13T15:34:23;26.80;99.90
27781;DHT22;15167;1.318;103.762;2022-09-13T15:39:27;26.80;99.90
27781;DHT22;15167;1.318;103.762;2022-09-13T15:41:56;26.80;99.90
27781;DHT22;15167;1.318;103.762;2022-09-13T15:44:24;26.80;99.90
27781;DHT22;15167;1.318;103.762;2022-09-13T15:46:51;26.80;99.90
27781;DHT22;15167;1.318;103.762;2022-09-13T15:49:19;26.80;99.90
27781;DHT22;15167;1.318;103.762;2022-09-13T15:51:46;26.90;99.90
27781;DHT22;15167;1.318;103.762;2022-09-13T15:54:13;26.80;99.90
27781;DHT22;15167;1.318;103.762;2022-09-13T15:56:41;26.80;99.90
27781;DHT22;15167;1.318;103.762;2022-09-13T15:59:10;26.80;99.90
27781;DHT22;15167;1.318;103.762;2022-09-13T16:01:37;26.80;99.90
27781;DHT22;15167;1.318;103.762;2022-09-13T16:04:03;26.80;99.90
27781;DHT22;15167;1.318;103.762;2022-09-13T16:06:30;26.80;99.90
27781;DHT22;15167;1.318;103.762;2022-09-13T16:08:56;26.80;99.90
27781;DHT22;15167;1.318;103.762;2022-09-13T16:11:25;26.80;99.90
27781;DHT22;15167;1.318;103.762;2022-09-13T16:13:51;26.80;99.90
27781;DHT22;15167;1.318;103.762;2022-09-13T16:16:17;26.80;99.90
27781;DHT22;15167;1.318;103.762;2022-09-13T16:18:43;26.90;99.90
27781;DHT22;15167;1.318;103.762;2022-09-13T16:21:09;26.80;99.90
27781;DHT22;15167;1.318;103.762;2022-09-13T16:23:35;26.80;99.90
27781;DHT22;15167;1.318;103.762;2022-09-13T16:26:01;26.80;99.90
27781;DHT22;15167;1.318;103.762;2022-09-13T16:28:29;26.80;99.90
27781;DHT22;15167;1.318;103.762;2022-09-13T16:30:55;26.80;99.90
27781;DHT22;15167;1.318;103.762;2022-09-13T16:33:21;26.80;99.90
27781;DHT22;15167;1.318;103.762;2022-09-13T16:35:48;26.80;99.90
27781;DHT22;15167;1.318;103.762;2022-09-13T16:38:14;26.80;99.90
27781;DHT22;15167;1.318;103.762;2022-09-13T16:40:41;26.80;99.90
27781;DHT22;15167;1.318;103.762;2022-09-13T16:43:08;26.80;99.90
27781;DHT22;15167;1.318;103.762;2022-09-13T16:45:36;26.80;99.90
27781;DHT22;15167;1.318;103.762;2022-09-13T16:48:03;26.80;99.90
27781;DHT22;15167;1.318;103.762;2022-09-13T16:50:29;26.80;99.90
27781;DHT22;15167;1.318;103.762;2022-09-13T16:52:55;26.70;99.90
27781;DHT22;15167;1.318;103.762;2022-09-13T16:55:22;26.70;99.90
27781;DHT22;15167;1.318;103.762;2022-09-13T16:57:50;26.80;99.90
27781;DHT22;15167;1.318;103.762;2022-09-13T17:00:17;26.80;99.90
27781;DHT22;15167;1.318;103.762;2022-09-13T17:02:45;26.80;99.90
27781;DHT22;15167;1.318;103.762;2022-09-13T17:05:11;26.80;99.90
27781;DHT22;15167;1.318;103.762;2022-09-13T17:07:38;26.80;99.90
27781;DHT22;15167;1.318;103.762;2022-09-13T17:10:04;26.80;99.90
27781;DHT22;15167;1.318;103.762;2022-09-13T17:12:32;26.80;99.90
27781;DHT22;15167;1.318;103.762;2022-09-13T17:14:58;26.80;99.90
27781;DHT22;15167;1.318;103.762;2022-09-13T17:17:24;26.80;99.90
27781;DHT22;15167;1.318;103.762;2022-09-13T17:19:50;26.80;99.90
27781;DHT22;15167;1.318;103.762;2022-09-13T17:22:17;26.80;99.90
27781;DHT22;15167;1.318;103.762;2022-09-13T17:24:43;26.80;99.90
27781;DHT22;15167;1.318;103.762;2022-09-13T17:27:09;26.80;99.90
27781;DHT22;15167;1.318;103.762;2022-09-13T17:29:35;26.80;99.90
27781;DHT22;15167;1.318;103.762;2022-09-13T17:32:03;26.80;99.90
27781;DHT22;15167;1.318;103.762;2022-09-13T17:34:30;26.80;99.90
27781;DHT22;15167;1.318;103.762;2022-09-13T17:36:59;26.80;99.90
27781;DHT22;15167;1.318;103.762;2022-09-13T17:39:25;26.80;99.90
27781;DHT22;15167;1.318;103.762;2022-09-13T17:41:51;26.80;99.90
27781;DHT22;15167;1.318;103.762;2022-09-13T17:44:17;26.80;99.90
27781;DHT22;15167;1.318;103.762;2022-09-13T17:46:43;26.80;99.90
27781;DHT22;15167;1.318;103.762;2022-09-13T17:49:10;26.80;99.90
27781;DHT22;15167;1.318;103.762;2022-09-13T17:51:36;26.80;99.90
27781;DHT22;15167;1.318;103.762;2022-09-13T17:54:05;26.70;99.90
27781;DHT22;15167;1.318;103.762;2022-09-13T17:56:36;26.70;99.90
27781;DHT22;15167;1.318;103.762;2022-09-13T17:59:03;26.70;99.90
27781;DHT22;15167;1.318;103.762;2022-09-13T18:01:30;26.70;99.90
27781;DHT22;15167;1.318;103.762;2022-09-13T18:03:56;26.70;99.90
27781;DHT22;15167;1.318;103.762;2022-09-13T18:06:22;26.70;99.90
27781;DHT22;15167;1.318;103.762;2022-09-13T18:08:51;26.70;99.90
27781;DHT22;15167;1.318;103.762;2022-09-13T18:11:17;26.70;99.90
27781;DHT22;15167;1.318;103.762;2022-09-13T18:13:44;26.70;99.90
27781;DHT22;15167;1.318;103.762;2022-09-13T18:16:11;26.70;99.90
27781;DHT22;15167;1.318;103.762;2022-09-13T18:18:38;26.70;99.90
27781;DHT22;15167;1.318;103.762;2022-09-13T18:21:04;26.70;99.90
27781;DHT22;15167;1.318;103.762;2022-09-13T18:23:31;26.70;99.90
27781;DHT22;15167;1.318;103.762;2022-09-13T18:26:02;26.60;99.90
27781;DHT22;15167;1.318;103.762;2022-09-13T18:28:29;26.60;99.90
27781;DHT22;15167;1.318;103.762;2022-09-13T18:30:56;26.60;99.90
27781;DHT22;15167;1.318;103.762;2022-09-13T18:33:22;26.60;99.90
27781;DHT22;15167;1.318;103.762;2022-09-13T18:35:59;26.60;99.90
27781;DHT22;15167;1.318;103.762;2022-09-13T18:38:25;26.60;99.90
27781;DHT22;15167;1.318;103.762;2022-09-13T18:41:02;26.60;99.90
27781;DHT22;15167;1.318;103.762;2022-09-13T18:43:29;26.60;99.90
27781;DHT22;15167;1.318;103.762;2022-09-13T18:45:56;26.60;99.90
27781;DHT22;15167;1.318;103.762;2022-09-13T18:48:23;26.60;99.90
27781;DHT22;15167;1.318;103.762;2022-09-13T18:50:49;26.60;99.90
27781;DHT22;15167;1.318;103.762;2022-09-13T18:53:15;26.60;99.90
27781;DHT22;15167;1.318;103.762;2022-09-13T18:55:41;26.60;99.90
27781;DHT22;15167;1.318;103.762;2022-09-13T18:58:07;26.60;99.90
27781;DHT22;15167;1.318;103.762;2022-09-13T19:00:34;26.50;99.90
27781;DHT22;15167;1.318;103.762;2022-09-13T19:03:00;26.60;99.90
27781;DHT22;15167;1.318;103.762;2022-09-13T19:05:26;26.60;99.90
27781;DHT22;15167;1.318;103.762;2022-09-13T19:07:52;26.50;99.90
27781;DHT22;15167;1.318;103.762;2022-09-13T19:10:20;26.50;99.90